createdAt,value
2022-09-15T00:00:38.305Z,19.42
2022-09-15T00:03:07.461Z,28.88
2022-09-15T00:05:35.202Z,15.95
2022-09-15T00:08:03.040Z,17.70
2022-09-15T00:10:30.720Z,49.00
2022-09-15T00:12:58.372Z,34.83
2022-09-15T00:15:26.095Z,28.23
2022-09-15T00:17:54.000Z,47.53
2022-09-15T00:20:23.085Z,41.75
2022-09-15T00:22:50.752Z,38.22
2022-09-15T00:25:18.648Z,24.48
2022-09-15T00:27:46.254Z,34.22
2022-09-15T00:30:14.025Z,20.58
2022-09-15T00:32:41.649Z,34.10
2022-09-15T00:35:09.708Z,29.67
2022-09-15T00:37:38.647Z,50.50
2022-09-15T00:40:07.103Z,43.08
2022-09-15T00:42:34.788Z,27.70
2022-09-15T00:45:03.116Z,49.53
2022-09-15T00:47:32.503Z,50.75
2022-09-15T00:50:02.443Z,51.10
2022-09-15T00:52:35.871Z,54.65
2022-09-15T00:55:08.319Z,51.70
2022-09-15T00:57:38.399Z,53.95
2022-09-15T01:00:07.683Z,53.63
2022-09-15T01:02:36.450Z,49.13
2022-09-15T01:05:07.422Z,51.70
2022-09-15T01:07:36.868Z,60.95
2022-09-15T01:10:08.103Z,50.25
2022-09-15T01:12:35.969Z,28.55
2022-09-15T01:15:03.792Z,52.90
2022-09-15T01:17:36.289Z,49.75
2022-09-15T01:20:22.496Z,21.65
2022-09-15T01:22:56.274Z,18.02
2022-09-15T01:25:35.238Z,28.17
2022-09-15T01:28:24.267Z,20.92
2022-09-15T01:30:55.135Z,47.35
2022-09-15T01:33:28.728Z,44.35
2022-09-15T01:36:00.947Z,23.90
2022-09-15T01:38:39.632Z,27.95
2022-09-15T01:41:09.373Z,23.85
2022-09-15T01:43:40.545Z,22.27
2022-09-15T01:46:10.031Z,36.13
2022-09-15T01:48:38.374Z,29.52
2022-09-15T01:51:06.759Z,28.50
2022-09-15T01:53:34.804Z,24.13
2022-09-15T01:56:05.183Z,24.83
2022-09-15T01:58:33.193Z,22.80
2022-09-15T02:01:03.296Z,25.15
2022-09-15T02:03:35.188Z,27.08
2022-09-15T02:06:05.071Z,27.65
2022-09-15T02:08:36.916Z,22.48
2022-09-15T02:11:08.596Z,20.75
2022-09-15T02:13:40.540Z,19.77
2022-09-15T02:16:14.047Z,18.85
2022-09-15T02:18:45.302Z,28.35
2022-09-15T02:21:16.426Z,26.95
2022-09-15T02:23:47.575Z,31.83
2022-09-15T02:26:16.905Z,36.53
2022-09-15T02:28:45.601Z,36.10
2022-09-15T02:31:14.951Z,37.55
2022-09-15T02:33:46.169Z,39.72
2022-09-15T02:36:14.915Z,37.97
2022-09-15T02:38:46.765Z,41.50
2022-09-15T02:41:14.665Z,34.95
2022-09-15T02:43:45.986Z,39.60
2022-09-15T02:46:13.744Z,37.65
2022-09-15T02:48:41.384Z,24.85
2022-09-15T02:51:10.410Z,29.27
2022-09-15T02:53:38.187Z,31.63
2022-09-15T02:56:06.669Z,29.52
2022-09-15T02:58:34.691Z,31.48
2022-09-15T03:01:03.064Z,30.00
2022-09-15T03:03:30.724Z,28.10
2022-09-15T03:06:16.376Z,32.47
2022-09-15T03:08:48.328Z,31.55
2022-09-15T03:11:16.353Z,29.70
2022-09-15T03:13:44.201Z,30.55
2022-09-15T03:16:12.488Z,32.53
2022-09-15T03:18:40.601Z,30.75
2022-09-15T03:21:09.358Z,29.92
2022-09-15T03:23:37.092Z,30.80
2022-09-15T03:26:06.474Z,29.13
2022-09-15T03:28:34.083Z,27.50
2022-09-15T03:31:01.805Z,31.00
2022-09-15T03:33:29.814Z,29.15
2022-09-15T03:35:57.633Z,30.02
2022-09-15T03:38:25.857Z,27.88
2022-09-15T03:41:00.516Z,27.70
2022-09-15T03:43:29.788Z,29.25
2022-09-15T03:45:57.949Z,29.35
2022-09-15T03:48:26.152Z,30.75
2022-09-15T03:50:53.767Z,31.05
2022-09-15T03:53:21.738Z,31.65
2022-09-15T03:55:49.844Z,29.83
2022-09-15T03:58:17.884Z,31.92
2022-09-15T04:00:47.712Z,29.45
2022-09-15T04:03:15.557Z,29.77
2022-09-15T04:05:43.278Z,30.00
2022-09-15T04:08:14.146Z,30.30
2022-09-15T04:10:42.266Z,27.90
2022-09-15T04:13:09.877Z,32.75
2022-09-15T04:15:37.559Z,30.40
2022-09-15T04:18:06.646Z,30.17
2022-09-15T04:20:34.362Z,31.38
2022-09-15T04:23:01.970Z,32.15
2022-09-15T04:25:29.663Z,30.55
2022-09-15T04:27:57.491Z,29.48
2022-09-15T04:30:25.207Z,31.55
2022-09-15T04:32:53.968Z,31.92
2022-09-15T04:35:23.398Z,32.55
2022-09-15T04:37:51.628Z,27.58
2022-09-15T04:40:19.448Z,31.30
2022-09-15T04:42:48.055Z,30.50
2022-09-15T04:45:16.014Z,30.00
2022-09-15T04:47:43.744Z,28.80
2022-09-15T04:50:11.618Z,32.35
2022-09-15T04:52:40.624Z,30.33
2022-09-15T04:55:08.641Z,30.05
2022-09-15T04:57:36.235Z,29.67
2022-09-15T05:00:05.739Z,30.55
2022-09-15T05:02:33.731Z,29.23
2022-09-15T05:05:02.273Z,30.80
2022-09-15T05:07:29.979Z,29.02
2022-09-15T05:09:58.974Z,28.77
2022-09-15T05:12:26.618Z,28.48
2022-09-15T05:14:54.217Z,28.10
2022-09-15T05:17:26.147Z,30.42
2022-09-15T05:19:55.933Z,28.20
2022-09-15T05:22:23.551Z,27.25
2022-09-15T05:24:51.195Z,27.70
2022-09-15T05:27:20.216Z,28.23
2022-09-15T05:29:47.850Z,28.50
2022-09-15T05:32:15.613Z,28.77
2022-09-15T05:34:43.277Z,27.55
2022-09-15T05:37:11.293Z,25.02
2022-09-15T05:39:39.397Z,28.20
2022-09-15T05:42:07.726Z,25.67
2022-09-15T05:44:36.767Z,27.90
2022-09-15T05:47:04.646Z,26.15
2022-09-15T05:49:32.944Z,27.90
2022-09-15T05:52:00.644Z,31.60
2022-09-15T05:54:28.481Z,31.70
2022-09-15T05:56:56.143Z,28.70
2022-09-15T05:59:23.911Z,30.95
2022-09-15T06:01:52.976Z,27.90
2022-09-15T06:04:20.612Z,30.23
2022-09-15T06:06:48.282Z,30.90
2022-09-15T06:09:16.162Z,32.10
2022-09-15T06:11:43.795Z,32.05
2022-09-15T06:14:13.506Z,31.55
2022-09-15T06:16:41.154Z,28.60
2022-09-15T06:19:10.317Z,27.95
2022-09-15T06:21:38.067Z,27.45
2022-09-15T06:24:07.349Z,28.77
2022-09-15T06:26:35.433Z,29.98
2022-09-15T06:29:03.828Z,29.50
2022-09-15T06:31:32.954Z,27.52
2022-09-15T06:34:00.964Z,30.52
2022-09-15T06:36:30.673Z,28.70
2022-09-15T06:38:58.895Z,29.77
2022-09-15T06:41:32.953Z,28.35
2022-09-15T06:44:10.631Z,28.38
2022-09-15T06:46:40.696Z,29.27
2022-09-15T06:49:08.309Z,29.02
2022-09-15T06:51:37.297Z,29.35
2022-09-15T06:54:05.525Z,27.52
2022-09-15T06:56:37.222Z,30.23
2022-09-15T06:59:05.844Z,29.38
2022-09-15T07:01:33.676Z,28.20
2022-09-15T07:04:01.861Z,29.85
2022-09-15T07:06:29.674Z,27.73
2022-09-15T07:08:59.020Z,28.27
2022-09-15T07:11:26.768Z,27.80
2022-09-15T07:13:54.417Z,27.08
2022-09-15T07:16:22.850Z,28.85
2022-09-15T07:18:50.806Z,24.55
2022-09-15T07:21:19.931Z,25.67
2022-09-15T07:23:47.962Z,26.05
2022-09-15T07:26:17.948Z,24.63
2022-09-15T07:28:49.962Z,23.50
2022-09-15T07:31:18.938Z,22.42
2022-09-15T07:33:46.897Z,22.55
2022-09-15T07:36:14.694Z,22.27
2022-09-15T07:38:43.555Z,20.90
2022-09-15T07:41:11.946Z,18.65
2022-09-15T07:43:40.956Z,19.98
2022-09-15T07:46:08.795Z,17.60
2022-09-15T07:48:36.462Z,15.82
2022-09-15T07:51:04.199Z,13.73
2022-09-15T07:53:32.071Z,14.48
2022-09-15T07:55:59.765Z,13.35
2022-09-15T07:58:27.359Z,14.13
2022-09-15T08:01:02.020Z,13.70
2022-09-15T08:03:29.744Z,13.07
2022-09-15T08:05:58.820Z,12.05
2022-09-15T08:08:26.479Z,12.75
2022-09-15T08:10:54.405Z,13.13
2022-09-15T08:13:22.459Z,12.90
2022-09-15T08:15:51.008Z,12.75
2022-09-15T08:18:20.133Z,13.23
2022-09-15T08:20:47.764Z,14.13
2022-09-15T08:23:15.733Z,11.85
2022-09-15T08:25:43.627Z,12.10
2022-09-15T08:28:11.965Z,11.18
2022-09-15T08:30:39.631Z,12.18
2022-09-15T08:33:07.578Z,9.95
2022-09-15T08:35:37.444Z,10.30
2022-09-15T08:38:05.105Z,10.30
2022-09-15T08:40:35.931Z,9.02
2022-09-15T08:43:07.088Z,9.60
2022-09-15T08:45:38.838Z,10.52
2022-09-15T08:48:08.526Z,9.52
2022-09-15T08:50:40.907Z,10.00
2022-09-15T08:53:11.045Z,9.30
2022-09-15T08:55:39.755Z,7.35
2022-09-15T08:58:07.438Z,6.18
2022-09-15T09:00:35.168Z,6.93
2022-09-15T09:03:14.431Z,5.35
2022-09-15T09:05:50.952Z,5.15
2022-09-15T09:08:30.233Z,4.68
2022-09-15T09:11:00.815Z,4.75
2022-09-15T09:13:35.598Z,4.90
2022-09-15T09:16:17.009Z,4.25
2022-09-15T09:18:53.063Z,4.57
2022-09-15T09:21:24.816Z,3.92
2022-09-15T09:23:56.558Z,4.13
2022-09-15T09:26:24.254Z,3.28
2022-09-15T09:28:55.350Z,3.70
2022-09-15T09:31:24.790Z,3.53
2022-09-15T09:33:56.474Z,3.92
2022-09-15T09:36:25.789Z,4.00
2022-09-15T09:38:53.472Z,3.22
2022-09-15T09:41:26.120Z,3.30
2022-09-15T09:43:55.082Z,3.15
2022-09-15T09:46:23.229Z,3.70
2022-09-15T09:48:54.293Z,2.78
2022-09-15T09:51:43.066Z,2.75
2022-09-15T09:54:16.186Z,3.10
2022-09-15T09:56:44.327Z,2.45
2022-09-15T09:59:32.743Z,2.42
2022-09-15T10:02:15.953Z,1.60
2022-09-15T10:04:44.278Z,1.48
2022-09-15T10:07:12.420Z,1.90
2022-09-15T10:09:49.363Z,1.52
2022-09-15T10:12:20.448Z,1.65
2022-09-15T10:14:52.585Z,2.15
2022-09-15T10:17:20.938Z,1.70
2022-09-15T10:19:49.729Z,1.48
2022-09-15T10:22:28.990Z,1.70
2022-09-15T10:24:58.054Z,1.25
2022-09-15T10:27:30.185Z,1.75
2022-09-15T10:30:00.216Z,1.95
2022-09-15T10:32:28.958Z,1.77
2022-09-15T10:35:03.362Z,1.33
2022-09-15T10:37:33.016Z,1.40
2022-09-15T10:40:05.051Z,1.63
2022-09-15T10:42:44.063Z,1.50
2022-09-15T10:45:17.303Z,1.88
2022-09-15T10:47:49.982Z,1.35
2022-09-15T10:50:23.704Z,1.50
2022-09-15T10:53:01.607Z,1.73
2022-09-15T10:55:52.266Z,1.85
2022-09-15T10:58:35.036Z,1.58
2022-09-15T11:01:13.567Z,1.23
2022-09-15T11:03:49.372Z,1.45
2022-09-15T11:06:20.461Z,1.83
2022-09-15T11:09:01.991Z,0.98
2022-09-15T11:11:36.037Z,2.10
2022-09-15T11:14:12.467Z,1.23
2022-09-15T11:16:46.300Z,1.35
2022-09-15T11:19:34.375Z,1.67
2022-09-15T11:22:04.394Z,2.05
2022-09-15T11:24:39.374Z,1.40
2022-09-15T11:27:12.583Z,1.15
2022-09-15T11:29:51.292Z,1.55
2022-09-15T11:32:23.091Z,1.33
2022-09-15T11:34:54.461Z,1.15
2022-09-15T11:37:25.066Z,1.42
2022-09-15T11:39:57.649Z,0.82
2022-09-15T11:42:28.104Z,1.02
2022-09-15T11:44:56.387Z,1.15
2022-09-15T11:47:27.299Z,1.45
2022-09-15T11:49:57.141Z,1.38
2022-09-15T11:52:39.577Z,1.92
2022-09-15T11:55:13.978Z,1.10
2022-09-15T11:57:45.672Z,1.27
2022-09-15T12:00:14.839Z,1.23
2022-09-15T12:02:45.477Z,1.00
2022-09-15T12:05:15.710Z,1.10
2022-09-15T12:07:47.561Z,0.93
2022-09-15T12:10:16.499Z,1.25
2022-09-15T12:12:46.752Z,1.20
2022-09-15T12:15:15.972Z,0.88
2022-09-15T12:17:46.590Z,1.83
2022-09-15T12:20:18.295Z,1.08
2022-09-15T12:22:49.966Z,1.17
2022-09-15T12:25:21.105Z,0.98
2022-09-15T12:28:03.557Z,1.33
2022-09-15T12:30:42.762Z,0.80
2022-09-15T12:33:34.476Z,1.20
2022-09-15T12:36:16.957Z,1.08
2022-09-15T12:38:48.426Z,1.25
2022-09-15T12:41:16.223Z,1.15
2022-09-15T12:43:52.217Z,1.50
2022-09-15T12:46:21.441Z,0.82
2022-09-15T12:48:49.576Z,1.20
2022-09-15T12:51:22.849Z,1.10
2022-09-15T12:53:52.242Z,1.52
2022-09-15T12:56:24.767Z,1.30
2022-09-15T12:58:52.985Z,0.77
2022-09-15T13:01:37.573Z,0.73
2022-09-15T13:04:25.222Z,0.83
2022-09-15T13:07:19.940Z,1.00
2022-09-15T13:09:57.047Z,1.27
2022-09-15T13:12:26.142Z,0.80
2022-09-15T13:14:55.642Z,1.00
2022-09-15T13:17:26.477Z,0.90
2022-09-15T13:19:55.045Z,0.95
2022-09-15T13:22:27.531Z,0.90
2022-09-15T13:24:59.282Z,1.00
2022-09-15T13:27:30.472Z,0.90
2022-09-15T13:30:03.945Z,0.80
2022-09-15T13:32:39.197Z,1.00
2022-09-15T13:35:33.808Z,1.58
2022-09-15T13:38:23.789Z,1.00
2022-09-15T13:41:10.476Z,1.08
2022-09-15T13:43:46.252Z,1.40
2022-09-15T13:46:20.137Z,1.45
2022-09-15T13:48:57.307Z,1.20
2022-09-15T13:51:26.445Z,1.17
2022-09-15T13:53:55.709Z,0.95
2022-09-15T13:56:27.785Z,2.03
2022-09-15T13:59:10.022Z,1.25
2022-09-15T14:01:43.034Z,0.85
2022-09-15T14:04:13.664Z,1.08
2022-09-15T14:06:42.215Z,1.02
2022-09-15T14:09:11.033Z,0.98
2022-09-15T14:11:39.254Z,0.88
2022-09-15T14:14:10.594Z,0.82
2022-09-15T14:16:39.250Z,1.00
2022-09-15T14:19:25.503Z,0.90
2022-09-15T14:21:58.345Z,1.05
2022-09-15T14:24:27.457Z,0.93
2022-09-15T14:26:55.101Z,0.93
2022-09-15T14:29:24.499Z,0.60
2022-09-15T14:31:53.108Z,0.75
2022-09-15T14:34:23.207Z,0.75
2022-09-15T14:36:57.255Z,1.42
2022-09-15T14:39:25.076Z,1.52
2022-09-15T14:41:52.793Z,1.45
2022-09-15T14:47:12.843Z,1.63
2022-09-15T14:49:41.816Z,1.05
2022-09-15T14:52:18.895Z,1.27
2022-09-15T14:54:46.614Z,1.48
2022-09-15T14:57:14.726Z,1.83
2022-09-15T14:59:45.280Z,1.30
2022-09-15T15:02:22.083Z,1.60
2022-09-15T15:04:53.058Z,1.48
2022-09-15T15:07:22.752Z,1.25
2022-09-15T15:09:53.278Z,1.75
2022-09-15T15:12:25.421Z,1.20
2022-09-15T15:14:54.137Z,1.15
2022-09-15T15:17:29.369Z,1.35
2022-09-15T15:20:02.407Z,0.80
2022-09-15T15:22:30.045Z,1.48
2022-09-15T15:24:58.054Z,1.50
2022-09-15T15:27:40.521Z,0.95
2022-09-15T15:30:29.666Z,1.40
2022-09-15T15:32:58.274Z,1.02
2022-09-15T15:35:27.625Z,0.93
2022-09-15T15:38:06.341Z,1.20
2022-09-15T15:40:34.458Z,1.00
2022-09-15T15:43:03.728Z,1.67
2022-09-15T15:45:31.808Z,1.65
2022-09-15T15:47:59.528Z,1.48
2022-09-15T15:50:32.373Z,1.23
2022-09-15T15:53:00.880Z,2.38
2022-09-15T15:55:31.948Z,1.40
2022-09-15T15:57:59.634Z,1.30
2022-09-15T16:00:30.574Z,1.30
2022-09-15T16:02:58.319Z,1.85
2022-09-15T16:05:26.811Z,1.00
2022-09-15T16:07:56.829Z,1.90
2022-09-15T16:10:25.682Z,1.80
2022-09-15T16:12:53.311Z,1.38
2022-09-15T16:15:22.038Z,1.60
2022-09-15T16:17:50.058Z,1.95
2022-09-15T16:20:19.795Z,1.45
2022-09-15T16:22:47.843Z,1.67
2022-09-15T16:25:18.299Z,1.55
2022-09-15T16:27:45.943Z,2.00
2022-09-15T16:30:13.701Z,1.40
2022-09-15T16:32:41.595Z,1.40
2022-09-15T16:35:15.842Z,1.90
2022-09-15T16:37:43.483Z,1.60
2022-09-15T16:40:11.423Z,1.98
2022-09-15T16:42:40.447Z,1.50
2022-09-15T16:45:17.099Z,1.40
2022-09-15T16:47:44.743Z,1.52
2022-09-15T16:50:13.231Z,1.77
2022-09-15T16:52:40.860Z,1.77
2022-09-15T16:55:16.748Z,2.10
2022-09-15T16:57:45.835Z,1.77
2022-09-15T17:00:14.290Z,1.70
2022-09-15T17:02:41.985Z,1.58
2022-09-15T17:05:13.792Z,1.80
2022-09-15T17:07:41.443Z,1.10
2022-09-15T17:10:09.336Z,1.90
2022-09-15T17:12:37.389Z,1.55
2022-09-15T17:15:12.608Z,2.80
2022-09-15T17:20:08.113Z,2.22
2022-09-15T17:22:35.761Z,1.77
2022-09-15T17:25:03.394Z,2.00
2022-09-15T17:27:31.018Z,1.42
2022-09-15T17:29:59.172Z,1.23
2022-09-15T17:32:30.645Z,2.63
2022-09-15T17:35:01.881Z,1.45
2022-09-15T17:37:29.480Z,1.33
2022-09-15T17:39:59.074Z,1.20
2022-09-15T17:42:26.912Z,1.27
2022-09-15T17:44:54.734Z,1.40
2022-09-15T17:47:22.447Z,1.70
2022-09-15T17:49:51.490Z,1.38
2022-09-15T17:52:19.247Z,1.25
2022-09-15T17:54:46.875Z,1.30
2022-09-15T17:57:14.490Z,1.85
2022-09-15T17:59:42.348Z,1.50
2022-09-15T18:02:16.474Z,1.25
2022-09-15T18:04:44.188Z,1.23
2022-09-15T18:07:13.268Z,1.40
2022-09-15T18:09:41.022Z,1.30
2022-09-15T18:12:10.104Z,1.40
2022-09-15T18:14:37.998Z,1.45
2022-09-15T18:17:05.652Z,1.30
2022-09-15T18:19:33.425Z,1.50
2022-09-15T18:22:01.103Z,1.60
2022-09-15T18:24:30.144Z,1.40
2022-09-15T18:26:57.845Z,1.23
2022-09-15T18:29:26.074Z,1.27
2022-09-15T18:31:53.708Z,1.08
2022-09-15T18:34:21.294Z,1.70
2022-09-15T18:36:48.947Z,1.30
2022-09-15T18:39:16.583Z,1.40
2022-09-15T18:41:45.746Z,1.58
2022-09-15T18:44:13.698Z,2.05
2022-09-15T18:46:41.571Z,1.50
2022-09-15T18:49:09.528Z,1.40
2022-09-15T18:51:51.111Z,2.47
2022-09-15T18:54:19.942Z,1.48
2022-09-15T18:56:48.915Z,1.58
2022-09-15T18:59:17.753Z,1.42
2022-09-15T19:01:45.716Z,1.30
2022-09-15T19:04:13.370Z,1.70
2022-09-15T19:06:41.014Z,1.05
2022-09-15T19:09:08.638Z,1.38
2022-09-15T19:11:36.254Z,2.08
2022-09-15T19:14:05.233Z,1.15
2022-09-15T19:16:53.779Z,1.60
2022-09-15T19:19:21.348Z,1.55
2022-09-15T19:21:49.250Z,1.83
2022-09-15T19:24:17.339Z,1.48
2022-09-15T19:26:46.775Z,1.20
2022-09-15T19:29:15.829Z,1.40
2022-09-15T19:31:43.491Z,1.23
2022-09-15T19:34:11.337Z,1.65
2022-09-15T19:36:39.311Z,1.27
2022-09-15T19:39:07.087Z,1.88
2022-09-15T19:41:34.721Z,2.22
2022-09-15T19:44:03.324Z,0.93
2022-09-15T19:46:33.014Z,1.92
2022-09-15T19:49:02.655Z,1.30
2022-09-15T19:51:31.454Z,1.10
2022-09-15T19:53:59.517Z,1.52
2022-09-15T19:56:28.367Z,0.90
2022-09-15T19:58:56.853Z,1.75
2022-09-15T20:01:25.418Z,1.83
2022-09-15T20:03:55.979Z,1.30
2022-09-15T20:06:27.600Z,1.40
2022-09-15T20:08:59.381Z,1.23
2022-09-15T20:11:28.173Z,1.30
2022-09-15T20:13:56.278Z,0.90
2022-09-15T20:16:24.555Z,1.10
2022-09-15T20:18:53.141Z,0.93
2022-09-15T20:21:39.083Z,1.38
2022-09-15T20:24:11.249Z,0.95
2022-09-15T20:26:38.951Z,1.25
2022-09-15T20:29:06.567Z,1.35
2022-09-15T20:31:34.360Z,1.20
2022-09-15T20:34:02.666Z,1.40
2022-09-15T20:36:33.470Z,1.48
2022-09-15T20:39:01.954Z,1.10
2022-09-15T20:41:31.871Z,1.30
2022-09-15T20:43:59.507Z,1.48
2022-09-15T20:46:29.144Z,0.93
2022-09-15T20:48:56.893Z,1.80
2022-09-15T20:51:25.608Z,1.23
2022-09-15T20:53:55.511Z,1.70
2022-09-15T20:56:25.782Z,1.30
2022-09-15T20:58:53.911Z,1.20
2022-09-15T21:01:22.400Z,1.33
2022-09-15T21:03:50.100Z,1.55
2022-09-15T21:06:18.715Z,1.30
2022-09-15T21:08:47.456Z,1.23
2022-09-15T21:11:17.201Z,1.50
2022-09-15T21:13:45.023Z,1.20
2022-09-15T21:16:15.119Z,1.45
2022-09-15T21:18:43.606Z,1.27
2022-09-15T21:21:12.488Z,1.77
2022-09-15T21:23:41.572Z,1.45
2022-09-15T21:26:09.926Z,1.42
2022-09-15T21:28:39.003Z,1.50
2022-09-15T21:31:07.839Z,1.27
2022-09-15T21:33:35.697Z,1.27
2022-09-15T21:36:05.084Z,2.45
2022-09-15T21:38:32.744Z,1.20
2022-09-15T21:41:00.409Z,1.60
2022-09-15T21:43:30.344Z,1.27
2022-09-15T21:45:59.919Z,1.10
2022-09-15T21:48:28.935Z,1.40
2022-09-15T21:50:56.544Z,1.35
2022-09-15T21:53:24.394Z,1.65
2022-09-15T21:55:52.918Z,1.42
2022-09-15T21:58:21.328Z,1.70
2022-09-15T22:00:50.023Z,1.60
2022-09-15T22:03:19.319Z,1.10
2022-09-15T22:05:47.948Z,1.45
2022-09-15T22:08:16.669Z,1.52
2022-09-15T22:10:45.069Z,1.95
2022-09-15T22:13:12.847Z,1.50
2022-09-15T22:15:40.562Z,1.48
2022-09-15T22:18:08.424Z,1.67
2022-09-15T22:20:37.424Z,1.35
2022-09-15T22:23:05.332Z,1.50
2022-09-15T22:25:34.134Z,1.98
2022-09-15T22:28:01.753Z,1.13
2022-09-15T22:30:29.406Z,1.30
2022-09-15T22:32:57.223Z,1.48
2022-09-15T22:35:25.076Z,1.73
2022-09-15T22:37:54.039Z,1.40
2022-09-15T22:40:22.345Z,1.73
2022-09-15T22:42:50.035Z,1.13
2022-09-15T22:45:17.996Z,1.20
2022-09-15T22:47:45.612Z,1.50
2022-09-15T22:50:13.322Z,1.52
2022-09-15T22:52:41.085Z,1.67
2022-09-15T22:55:10.425Z,1.20
2022-09-15T22:57:39.618Z,1.48
2022-09-15T23:00:08.611Z,1.23
2022-09-15T23:02:36.229Z,1.38
2022-09-15T23:05:03.829Z,1.38
2022-09-15T23:07:31.612Z,1.52
2022-09-15T23:09:59.395Z,1.98
2022-09-15T23:12:30.744Z,1.35
2022-09-15T23:14:58.493Z,1.73
2022-09-15T23:17:27.443Z,1.58
2022-09-15T23:19:55.221Z,2.50
2022-09-15T23:22:22.842Z,2.03
2022-09-15T23:24:50.535Z,1.60
2022-09-15T23:27:18.181Z,1.17
2022-09-15T23:29:47.178Z,1.38
2022-09-15T23:32:14.829Z,1.40
2022-09-15T23:34:42.431Z,1.25
2022-09-15T23:37:10.082Z,1.27
2022-09-15T23:39:37.816Z,1.20
2022-09-15T23:42:05.518Z,1.83
2022-09-15T23:44:33.160Z,1.10
2022-09-15T23:47:02.250Z,1.60
2022-09-15T23:49:29.983Z,1.52
2022-09-15T23:51:57.690Z,1.23
2022-09-15T23:54:25.465Z,1.70
2022-09-15T23:56:53.118Z,1.75
2022-09-15T23:59:21.064Z,1.00
